Startpagina
METAR-TAF:

METAR-TAF

Vliegvelden :

Kbely

Praag, Tsjechië

breedte: 50-07-17N, lengte: 14-32-37E, hoogte: 286 m

Actueel weer

Dit bericht is 31 minuten geleden gemaakt, om 22:00 UTC
Wind 1 kt uit het oostnoordoosten
Temperatuur 8°C
Vochtigheid 61%
Druk 1016 hPa
Zicht 10 km of meer
geen wolken onder 1500 m en geen cumulonimbus

METAR: LKKB 082200Z 06001KT CAVOK 08/01 Q1016

Tijdstip: 00:31 (22:31 UTC)

Verwachting

Dit bericht is 5 uur en het 31 minuten geleden gemaakt, om 17:00 UTC
Verwachting geldig van 08 om 18 UTC tot 09 om 18 UTC
Wind 5 kt uit het zuidoosten
Zicht 10 km of meer
geen wolken onder 1500 m en geen cumulonimbus
Tijdelijke
van 09 om 00 UTC tot 09 om 03 UTC
Wind 8 kt uit het zuidzuidoosten
Wijzigt naar
van 09 om 12 UTC tot 09 om 14 UTC
Wind 8 kt uit het zuidzuidoosten

TAF: LKKB 081700Z 0818/0918 14005KT CAVOK TEMPO 0900/0903 15008KT BECMG 0912/0914 15008KT

Waarnemingen en weersverwachtingen van meer dan 4000 vliegvelden (METAR en TAF).

De beschikbare stations zijn de gele en rode punten op de kaart.

Ga met uw muis naar het station om de naam te zien.

Klik dan om waarnemingen en weersverwachtingen te zien.

kaart wijzigen: klik op de groene knoppen met een zwart kruis om in te zoomen, op de groene knop met een streepje om uit te zoomen of op de groene pijlen voor aangrenzende kaarten.


METAR-TAF: